Time;durP1;ratioP1;P1;durP2;ratioP2;P2;SDS_P1;SDS_P2;PMS_P1;PMS_P2;Temp;Humidity;BMP_temperature;BMP_pressure;BME280_temperature;BME280_humidity;BME280_pressure;Samples;Min_cycle;Max_cycle;Signal;HPM_P1;HPM_P2
2023/06/19 00:02:03;;;;;;;9.05;6.65;;;;;;;-143.48;45.77;118439.88;5094392;28;20371;-41
2023/06/19 00:04:28;;;;;;;10.13;6.65;;;;;;;-143.48;45.65;118439.88;5094594;28;20115;-39
2023/06/19 00:06:54;;;;;;;10.05;7.05;;;;;;;-143.48;45.45;118439.88;5094165;28;20027;-39
2023/06/19 00:09:19;;;;;;;8.57;6.90;;;;;;;-143.48;45.50;118439.88;5094181;28;20031;-39
2023/06/19 00:11:45;;;;;;;10.35;7.20;;;;;;;-143.48;45.64;118439.88;5094453;28;20028;-39
2023/06/19 00:14:10;;;;;;;9.55;6.72;;;;;;;-143.48;45.59;118439.88;5094118;28;20062;-39
2023/06/19 00:16:35;;;;;;;9.13;6.63;;;;;;;-143.48;45.72;118439.88;5094779;28;20443;-40
2023/06/19 00:19:03;;;;;;;11.18;7.00;;;;;;;-143.48;45.87;118439.88;5094071;28;20160;-39
2023/06/19 00:21:28;;;;;;;10.15;6.65;;;;;;;-143.48;45.97;118439.88;5094327;28;20485;-39
2023/06/19 00:23:54;;;;;;;9.35;6.63;;;;;;;-143.48;46.33;118439.88;5094147;28;20024;-39
2023/06/19 00:26:22;;;;;;;11.43;7.20;;;;;;;-143.48;46.38;118439.88;5094241;28;20070;-39
2023/06/19 00:28:48;;;;;;;10.25;6.75;;;;;;;-143.48;46.59;118439.88;5093630;28;20474;-39
2023/06/19 00:31:14;;;;;;;13.52;7.32;;;;;;;-143.48;46.97;118439.88;5093894;28;20039;-39
2023/06/19 00:33:40;;;;;;;10.48;6.03;;;;;;;-143.48;47.11;118439.88;5094150;28;20035;-39
2023/06/19 00:36:10;;;;;;;12.63;6.88;;;;;;;-143.48;47.49;118439.88;5094018;28;20103;-39
2023/06/19 00:38:36;;;;;;;13.18;6.97;;;;;;;-143.48;47.68;118439.88;5093993;28;20039;-39
2023/06/19 00:41:01;;;;;;;10.50;6.90;;;;;;;-143.48;48.09;118439.88;5093725;28;20103;-39
2023/06/19 00:43:26;;;;;;;13.85;6.43;;;;;;;-143.48;48.78;118439.88;5094327;28;20107;-39
2023/06/19 00:45:52;;;;;;;12.98;6.72;;;;;;;-143.48;48.78;118439.88;5094235;28;20028;-39
2023/06/19 00:48:17;;;;;;;12.50;6.40;;;;;;;-143.48;49.41;118439.88;5093933;28;20370;-39
2023/06/19 00:50:43;;;;;;;11.57;6.45;;;;;;;-143.48;49.87;118439.88;5093451;28;20048;-39
2023/06/19 00:53:08;;;;;;;11.93;6.22;;;;;;;-143.48;50.04;118439.88;5093573;28;20037;-40
2023/06/19 00:55:34;;;;;;;10.13;6.03;;;;;;;-143.48;50.40;118439.88;5093594;28;20103;-39
2023/06/19 00:58:00;;;;;;;8.98;5.05;;;;;;;-143.48;51.52;118439.88;5093685;28;20028;-39
2023/06/19 01:00:26;;;;;;;12.95;5.00;;;;;;;-143.48;51.89;118439.88;5094010;28;20024;-39
2023/06/19 01:02:51;;;;;;;7.93;4.25;;;;;;;-143.48;52.94;118439.88;5093443;28;20020;-39
2023/06/19 01:05:17;;;;;;;9.30;4.80;;;;;;;-143.48;53.43;118439.88;5093405;28;20102;-39
2023/06/19 01:07:51;;;;;;;6.85;4.70;;;;;;;-143.48;53.82;118439.88;5093686;28;20124;-39
2023/06/19 01:10:24;;;;;;;11.80;4.90;;;;;;;-143.48;53.84;118439.88;5075284;28;20031;-39
2023/06/19 01:13:14;;;;;;;7.45;4.45;;;;;;;-143.48;54.66;118439.88;5093648;28;20489;-39
2023/06/19 01:15:41;;;;;;;7.03;4.07;;;;;;;-143.48;55.33;118439.88;5075509;28;20406;-39
2023/06/19 01:18:07;;;;;;;10.35;4.40;;;;;;;-143.48;56.26;118439.88;5093461;28;20032;-39
2023/06/19 01:20:33;;;;;;;7.18;3.97;;;;;;;-143.48;56.83;118439.88;5093509;28;20150;-39
2023/06/19 01:23:06;;;;;;;6.60;4.10;;;;;;;-143.48;57.43;118439.88;5093461;28;20020;-41
2023/06/19 01:25:31;;;;;;;6.78;3.90;;;;;;;-143.48;58.05;118439.88;5093116;28;20076;-39
2023/06/19 01:27:57;;;;;;;9.07;3.83;;;;;;;-143.48;59.21;118439.88;5093447;28;20073;-39
2023/06/19 01:30:22;;;;;;;7.60;3.45;;;;;;;-143.48;60.38;118439.88;5093131;28;20024;-39
2023/06/19 01:33:26;;;;;;;5.88;3.00;;;;;;;-143.48;62.30;118439.88;5093449;28;20020;-39
2023/06/19 01:35:51;;;;;;;10.30;3.00;;;;;;;-143.48;63.03;118439.88;5077862;28;20043;-39
2023/06/19 01:38:19;;;;;;;6.43;3.00;;;;;;;-143.48;64.19;118439.88;5094006;28;20029;-39
2023/06/19 01:40:46;;;;;;;6.18;3.00;;;;;;;-143.48;64.98;118439.88;5093757;28;20026;-39
2023/06/19 01:43:12;;;;;;;3.47;2.55;;;;;;;-143.48;65.65;118439.88;5096933;28;20097;-39
2023/06/19 01:45:38;;;;;;;4.05;2.80;;;;;;;-143.48;66.30;118439.88;5096109;28;20020;-39
2023/06/19 01:48:03;;;;;;;7.05;2.97;;;;;;;-143.48;66.18;118439.88;5095087;28;20016;-39
2023/06/19 01:50:29;;;;;;;5.03;2.92;;;;;;;-143.48;66.75;118439.88;5094790;28;20067;-39
2023/06/19 01:52:55;;;;;;;6.82;2.83;;;;;;;-143.48;67.23;118439.88;5095071;28;20020;-39
2023/06/19 01:55:20;;;;;;;3.75;2.70;;;;;;;-143.48;67.06;118439.88;5094815;28;20032;-39
2023/06/19 01:57:46;;;;;;;4.28;2.85;;;;;;;-143.48;67.03;118439.88;5094983;28;20073;-39
2023/06/19 02:00:12;;;;;;;6.95;3.08;;;;;;;-143.48;68.07;118439.88;5076655;28;20054;-39
2023/06/19 02:02:37;;;;;;;10.73;3.05;;;;;;;-143.48;68.78;118439.88;5096461;28;20383;-39
2023/06/19 02:05:04;;;;;;;5.75;2.92;;;;;;;-143.48;69.05;118439.88;5096565;28;20019;-39
2023/06/19 02:07:29;;;;;;;5.70;2.95;;;;;;;-143.48;68.65;118439.88;5096786;28;20024;-39
2023/06/19 02:09:55;;;;;;;4.20;2.80;;;;;;;-143.48;69.38;118439.88;5096547;28;20429;-39
2023/06/19 02:12:20;;;;;;;5.97;2.97;;;;;;;-143.48;70.14;118439.88;5096781;28;20077;-39
2023/06/19 02:14:45;;;;;;;5.38;2.90;;;;;;;-143.48;71.00;118439.88;5096478;28;20077;-39
2023/06/19 02:17:11;;;;;;;8.07;3.10;;;;;;;-143.48;71.56;118439.88;5096594;28;20487;-39
2023/06/19 02:19:36;;;;;;;6.80;3.00;;;;;;;-143.48;72.28;118439.88;5096861;28;20028;-38
2023/06/19 02:22:01;;;;;;;5.82;3.28;;;;;;;-143.48;72.86;118439.88;5096576;28;20383;-39
2023/06/19 02:24:26;;;;;;;6.93;3.58;;;;;;;-143.48;73.14;118439.88;5096568;28;20028;-39
2023/06/19 02:26:52;;;;;;;5.05;3.20;;;;;;;-143.48;73.08;118439.88;5096244;28;20524;-39
2023/06/19 02:29:17;;;;;;;6.38;3.70;;;;;;;-143.48;74.25;118439.88;5096445;28;20031;-39
2023/06/19 02:31:43;;;;;;;5.07;3.38;;;;;;;-143.48;74.17;118439.88;5077955;28;20024;-39
2023/06/19 02:34:09;;;;;;;6.38;3.60;;;;;;;-143.48;73.90;118439.88;5096009;28;20067;-39
2023/06/19 02:36:35;;;;;;;6.38;3.65;;;;;;;-143.48;74.18;118439.88;5095932;28;20066;-39
2023/06/19 02:39:01;;;;;;;5.40;3.78;;;;;;;-143.48;74.91;118439.88;5096202;28;20450;-39
2023/06/19 02:41:26;;;;;;;5.72;4.10;;;;;;;-143.48;74.68;118439.88;5095945;28;20049;-39
2023/06/19 02:43:51;;;;;;;5.22;3.80;;;;;;;-143.48;74.67;118439.88;5096405;28;20115;-39
2023/06/19 02:46:17;;;;;;;5.70;3.72;;;;;;;-143.48;74.38;118439.88;5096136;28;20093;-39
2023/06/19 02:48:42;;;;;;;7.57;3.67;;;;;;;-143.48;74.97;118439.88;5096086;28;20031;-39
2023/06/19 02:51:08;;;;;;;6.45;3.78;;;;;;;-143.48;74.93;118439.88;5095587;28;20054;-39
2023/06/19 02:53:33;;;;;;;7.10;4.20;;;;;;;-143.48;75.62;118439.88;5095799;28;20020;-39
2023/06/19 02:55:58;;;;;;;6.70;3.83;;;;;;;-143.48;75.72;118439.88;5095635;28;20435;-39
2023/06/19 02:58:23;;;;;;;7.13;4.20;;;;;;;-143.48;75.69;118439.88;5095427;28;20028;-39
2023/06/19 03:00:49;;;;;;;7.22;4.00;;;;;;;-143.48;75.67;118439.88;5096075;28;20107;-39
2023/06/19 03:03:14;;;;;;;7.15;4.20;;;;;;;-143.48;75.79;118439.88;5095526;28;20028;-39
2023/06/19 03:05:39;;;;;;;8.48;4.20;;;;;;;-143.48;76.64;118439.88;5095739;28;20020;-39
2023/06/19 03:08:05;;;;;;;5.55;4.30;;;;;;;-143.48;76.64;118439.88;5096045;28;20016;-39
2023/06/19 03:10:31;;;;;;;7.78;4.40;;;;;;;-143.48;76.48;118439.88;5095567;28;20020;-39
2023/06/19 03:12:58;;;;;;;6.78;4.80;;;;;;;-143.48;76.44;118439.88;5095267;28;20074;-39
2023/06/19 03:15:23;;;;;;;7.47;4.72;;;;;;;-143.48;76.71;118439.88;5095569;28;20584;-39
2023/06/19 03:17:49;;;;;;;7.22;4.85;;;;;;;-143.48;77.62;118439.88;5095924;28;20083;-39
2023/06/19 03:20:14;;;;;;;10.20;5.50;;;;;;;-143.48;78.93;118439.88;5095737;28;20386;-44
2023/06/19 03:22:40;;;;;;;11.65;5.55;;;;;;;-143.48;79.09;118439.88;5095174;28;20442;-39
2023/06/19 03:25:06;;;;;;;7.65;5.05;;;;;;;-143.48;78.90;118439.88;5095285;28;20102;-39
2023/06/19 03:27:32;;;;;;;17.55;6.25;;;;;;;-143.48;80.08;118439.88;5095325;28;20047;-39
2023/06/19 03:29:57;;;;;;;13.75;6.78;;;;;;;-143.48;80.84;118439.88;5094946;28;20420;-40
2023/06/19 03:32:22;;;;;;;8.48;6.63;;;;;;;-143.48;81.76;118439.88;5095519;28;20363;-39
2023/06/19 03:34:48;;;;;;;9.57;6.93;;;;;;;-143.48;82.45;118439.88;5095507;28;20028;-39
2023/06/19 03:37:13;;;;;;;12.68;7.55;;;;;;;-143.48;83.86;118439.88;5095096;28;20030;-39
2023/06/19 03:39:38;;;;;;;10.85;7.18;;;;;;;-143.48;84.21;118439.88;5094738;28;20031;-39
2023/06/19 03:42:04;;;;;;;10.32;6.53;;;;;;;-143.48;83.48;118439.88;5094926;28;20063;-39
2023/06/19 03:44:30;;;;;;;13.23;7.05;;;;;;;-143.48;83.95;118439.88;5094886;28;20364;-39
2023/06/19 03:46:55;;;;;;;11.40;7.32;;;;;;;-143.48;85.38;118439.88;5094643;28;20051;-39
2023/06/19 03:49:20;;;;;;;12.93;6.55;;;;;;;-143.48;85.03;118439.88;5094789;28;20030;-39
2023/06/19 03:51:45;;;;;;;9.13;6.63;;;;;;;-143.48;85.68;118439.88;5094372;28;20074;-39
2023/06/19 03:54:11;;;;;;;9.75;6.90;;;;;;;-143.48;86.97;118439.88;5094558;28;20534;-40
2023/06/19 03:56:36;;;;;;;11.90;7.45;;;;;;;-143.48;89.44;118439.88;5094368;28;20020;-39
2023/06/19 03:59:01;;;;;;;12.43;7.70;;;;;;;-143.48;93.11;118439.88;5094731;28;20106;-39
2023/06/19 04:01:28;;;;;;;10.02;7.72;;;;;;;-143.48;95.49;118439.88;5094556;28;20135;-39
2023/06/19 04:03:53;;;;;;;13.55;8.95;;;;;;;-143.48;96.42;118439.88;5094040;28;20043;-39
2023/06/19 04:06:18;;;;;;;11.40;8.68;;;;;;;-143.48;97.06;118439.88;5094563;28;20039;-39
2023/06/19 04:08:44;;;;;;;14.23;9.10;;;;;;;-143.48;97.99;118439.88;5076113;28;20019;-39
2023/06/19 04:11:09;;;;;;;14.43;9.82;;;;;;;-143.48;97.43;118439.88;5094467;28;20197;-39
2023/06/19 04:13:34;;;;;;;14.10;8.93;;;;;;;-143.48;97.73;118439.88;5094142;28;20433;-39
2023/06/19 04:16:00;;;;;;;17.35;9.75;;;;;;;-143.48;97.84;118439.88;5094353;28;20023;-39
2023/06/19 04:18:27;;;;;;;15.43;10.23;;;;;;;-143.48;97.54;118439.88;5094001;28;20404;-39
2023/06/19 04:20:52;;;;;;;15.85;9.82;;;;;;;-143.48;96.88;118439.88;5093560;28;20056;-39
2023/06/19 04:23:17;;;;;;;15.90;11.02;;;;;;;-143.48;96.34;118439.88;5094193;28;20024;-39
2023/06/19 04:25:43;;;;;;;17.95;11.20;;;;;;;-143.48;95.62;118439.88;5093924;28;20492;-39
2023/06/19 04:28:08;;;;;;;16.15;10.93;;;;;;;-143.48;95.25;118439.88;5094175;28;20020;-39
2023/06/19 04:30:33;;;;;;;16.52;11.60;;;;;;;-143.48;95.24;118439.88;5094158;28;20382;-39
2023/06/19 04:32:59;;;;;;;16.05;10.82;;;;;;;-143.48;94.92;118439.88;5093860;28;20141;-39
2023/06/19 04:35:24;;;;;;;17.15;11.38;;;;;;;-143.48;94.45;118439.88;5094360;28;20046;-39
2023/06/19 04:37:49;;;;;;;17.00;10.68;;;;;;;-143.48;93.82;118439.88;5075459;28;20393;-39
2023/06/19 04:40:15;;;;;;;16.10;10.30;;;;;;;-143.48;93.29;118439.88;5093734;28;20034;-39
2023/06/19 04:42:40;;;;;;;13.02;9.27;;;;;;;-143.48;93.35;118439.88;5093935;28;20477;-39
2023/06/19 04:45:09;;;;;;;12.93;8.60;;;;;;;-143.48;92.24;118439.88;5093931;28;20035;-39
2023/06/19 04:47:35;;;;;;;15.48;8.82;;;;;;;-143.48;91.49;118439.88;5093670;28;20020;-39
2023/06/19 04:50:00;;;;;;;12.20;8.00;;;;;;;-143.48;91.61;118439.88;5093658;28;20378;-38
2023/06/19 04:52:26;;;;;;;9.55;6.55;;;;;;;-143.48;91.31;118439.88;5093524;28;20024;-39
2023/06/19 04:54:51;;;;;;;9.20;6.55;;;;;;;-143.48;91.58;118439.88;5093546;28;20031;-38
2023/06/19 04:57:17;;;;;;;12.25;7.22;;;;;;;-143.48;91.25;118439.88;5075288;28;20105;-39
2023/06/19 04:59:43;;;;;;;12.30;7.47;;;;;;;-143.48;91.58;118439.88;5093418;28;20030;-38
2023/06/19 05:02:09;;;;;;;12.32;7.57;;;;;;;-143.48;91.72;118439.88;5093681;28;20028;-39
2023/06/19 05:04:35;;;;;;;10.38;6.95;;;;;;;-143.48;91.88;118439.88;5093417;28;20107;-39
2023/06/19 05:07:01;;;;;;;15.70;7.25;;;;;;;-143.48;91.61;118439.88;5093572;28;20024;-39
2023/06/19 05:09:26;;;;;;;10.80;6.88;;;;;;;-143.48;91.75;118439.88;5093380;28;20074;-39
2023/06/19 05:11:52;;;;;;;9.60;5.70;;;;;;;-143.48;90.91;118439.88;5093658;28;20024;-39
2023/06/19 05:14:17;;;;;;;13.20;5.68;;;;;;;-143.48;91.34;118439.88;5093444;28;20035;-39
2023/06/19 05:16:43;;;;;;;6.97;5.30;;;;;;;-143.48;90.69;118439.88;5097113;28;20024;-39
2023/06/19 05:19:09;;;;;;;6.88;4.82;;;;;;;-143.48;90.36;118439.88;5098059;28;20051;-38
2023/06/19 05:21:34;;;;;;;9.07;5.72;;;;;;;-143.48;89.11;118439.88;5097416;28;20020;-39
2023/06/19 05:23:59;;;;;;;8.70;5.90;;;;;;;-143.48;89.22;118439.88;5097661;28;20522;-39
2023/06/19 05:26:26;;;;;;;10.23;7.03;;;;;;;-143.48;88.90;118439.88;5097580;28;20031;-39
2023/06/19 05:28:51;;;;;;;12.18;8.13;;;;;;;-143.48;89.93;118439.88;5097563;28;20331;-39
2023/06/19 05:31:18;;;;;;;11.50;8.90;;;;;;;-143.48;89.42;118439.88;5097329;28;20024;-39
2023/06/19 05:33:43;;;;;;;12.57;8.50;;;;;;;-143.48;89.93;118439.88;5097448;28;20405;-39
2023/06/19 05:36:09;;;;;;;11.27;8.15;;;;;;;-143.48;89.60;118439.88;5097197;28;20039;-39
2023/06/19 05:38:34;;;;;;;9.88;7.50;;;;;;;-143.48;89.54;118439.88;5097254;28;20024;-39
2023/06/19 05:40:59;;;;;;;9.95;7.40;;;;;;;-143.48;89.21;118439.88;5096310;28;20027;-39
2023/06/19 05:43:25;;;;;;;12.27;7.60;;;;;;;-143.48;88.96;118439.88;5079003;28;20436;-39
2023/06/19 05:45:52;;;;;;;9.07;7.28;;;;;;;-143.48;88.04;118439.88;5096025;28;20453;-39
2023/06/19 05:48:18;;;;;;;10.40;7.35;;;;;;;-143.48;87.54;118439.88;5097280;28;20043;-39
2023/06/19 05:50:43;;;;;;;8.68;6.65;;;;;;;-143.48;87.35;118439.88;5096930;28;20487;-39
2023/06/19 05:53:08;;;;;;;8.57;6.47;;;;;;;-143.48;86.33;118439.88;5097114;28;20111;-39
2023/06/19 05:55:34;;;;;;;11.45;7.20;;;;;;;-143.48;85.21;118439.88;5097075;28;20032;-39
2023/06/19 05:57:59;;;;;;;8.13;6.60;;;;;;;-143.48;84.82;118439.88;5096919;28;20522;-39
2023/06/19 06:00:24;;;;;;;9.30;6.47;;;;;;;-143.48;83.98;118439.88;5096742;28;20348;-39
2023/06/19 06:02:51;;;;;;;9.20;6.50;;;;;;;-143.48;83.64;118439.88;5096882;28;20076;-39
2023/06/19 06:05:18;;;;;;;9.15;6.55;;;;;;;-143.48;83.23;118439.88;5078733;28;20131;-39
2023/06/19 06:07:44;;;;;;;9.48;6.10;;;;;;;-143.48;83.89;118439.88;5096608;28;20016;-39
2023/06/19 06:10:10;;;;;;;9.27;6.03;;;;;;;-143.48;82.95;118439.88;5096542;28;20467;-39
2023/06/19 06:12:35;;;;;;;9.25;6.20;;;;;;;-143.48;83.62;118439.88;5096716;28;20038;-40
2023/06/19 06:15:09;;;;;;;7.70;5.72;;;;;;;-143.48;82.62;118439.88;5096693;28;20020;-40
2023/06/19 06:17:35;;;;;;;9.13;6.20;;;;;;;-143.48;82.49;118439.88;5096607;28;20028;-39
2023/06/19 06:20:00;;;;;;;9.88;6.00;;;;;;;-143.48;82.96;118439.88;5096272;28;20034;-39
2023/06/19 06:22:25;;;;;;;10.77;6.63;;;;;;;-143.48;82.91;118439.88;5096579;28;20016;-39
2023/06/19 06:24:51;;;;;;;10.63;6.43;;;;;;;-143.48;82.49;118439.88;5096232;28;20030;-40
2023/06/19 06:27:16;;;;;;;8.00;6.03;;;;;;;-143.48;82.25;118439.88;5094999;28;20024;-39
2023/06/19 06:29:41;;;;;;;8.57;6.40;;;;;;;-143.48;82.37;118439.88;5095891;28;20096;-39
2023/06/19 06:32:07;;;;;;;10.25;6.80;;;;;;;-143.48;81.81;118439.88;5094178;28;20110;-39
2023/06/19 06:34:34;;;;;;;14.40;6.55;;;;;;;-143.48;81.70;118439.88;5094184;28;20048;-39
2023/06/19 06:37:00;;;;;;;11.60;6.75;;;;;;;-143.48;81.85;118439.88;5093769;28;20038;-39
2023/06/19 06:39:26;;;;;;;11.90;6.47;;;;;;;-143.48;81.31;118439.88;5093654;28;20023;-39
2023/06/19 06:41:51;;;;;;;9.63;6.88;;;;;;;-143.48;80.30;118439.88;5093692;28;20020;-27
2023/06/19 06:44:17;;;;;;;13.90;6.68;;;;;;;-143.48;81.39;118439.88;5094210;28;20048;-26
2023/06/19 06:46:42;;;;;;;14.35;7.13;;;;;;;-143.48;79.12;118439.88;5096093;28;20020;-26
2023/06/19 06:49:07;;;;;;;9.75;6.70;;;;;;;-143.48;78.47;118439.88;5095752;28;20417;-27
2023/06/19 06:51:33;;;;;;;11.10;7.35;;;;;;;-143.48;79.48;118439.88;5095555;28;20448;-27
2023/06/19 06:53:58;;;;;;;12.65;7.88;;;;;;;-143.48;77.98;118439.88;5095623;28;20463;-27
2023/06/19 06:56:24;;;;;;;13.68;8.35;;;;;;;-143.48;77.84;118439.88;5095480;28;20020;-27
2023/06/19 06:58:49;;;;;;;14.30;8.60;;;;;;;-143.48;77.08;118439.88;5096129;28;20036;-27
2023/06/19 07:01:14;;;;;;;10.70;7.68;;;;;;;-143.48;75.20;118439.88;5095589;28;20375;-27
2023/06/19 07:03:40;;;;;;;14.50;8.20;;;;;;;-143.48;72.70;118439.88;5095682;28;20028;-27
2023/06/19 07:06:05;;;;;;;12.68;7.45;;;;;;;-143.48;70.04;118439.88;5095727;28;20016;-27
2023/06/19 07:08:30;;;;;;;13.90;8.13;;;;;;;-143.48;70.71;118439.88;5095348;28;20446;-27
2023/06/19 07:10:56;;;;;;;11.52;7.38;;;;;;;-143.48;70.99;118439.88;5095367;28;20024;-27
2023/06/19 07:13:21;;;;;;;16.00;9.65;;;;;;;-143.48;73.99;118439.88;5095302;28;20470;-27
2023/06/19 07:15:46;;;;;;;14.70;8.52;;;;;;;-143.48;73.64;118439.88;5077142;28;20069;-27
2023/06/19 07:18:12;;;;;;;13.55;7.95;;;;;;;-143.48;71.42;118439.88;5095394;28;20027;-28
2023/06/19 07:20:37;;;;;;;13.40;7.85;;;;;;;-143.48;70.73;118439.88;5095190;28;20522;-28
2023/06/19 07:23:03;;;;;;;11.27;7.07;;;;;;;-143.48;69.76;118439.88;5095001;28;20024;-27
2023/06/19 07:25:28;;;;;;;12.50;7.60;;;;;;;-143.48;69.35;118439.88;5095328;28;20409;-29
2023/06/19 07:27:53;;;;;;;11.68;7.45;;;;;;;-143.48;70.15;118439.88;5095195;28;20370;-27
2023/06/19 07:30:19;;;;;;;12.02;6.78;;;;;;;-143.48;68.27;118439.88;5095261;28;20086;-27
2023/06/19 07:32:44;;;;;;;11.20;7.10;;;;;;;-143.48;66.14;118439.88;5095237;28;20016;-27
2023/06/19 07:35:11;;;;;;;12.93;6.85;;;;;;;-143.48;66.38;118439.88;5095077;28;20028;-28
2023/06/19 07:37:36;;;;;;;11.27;7.10;;;;;;;-143.48;66.53;118439.88;5094875;28;20024;-27
2023/06/19 07:40:02;;;;;;;13.05;6.70;;;;;;;-143.48;66.43;118439.88;5094716;28;20030;-27
2023/06/19 07:42:27;;;;;;;12.07;7.00;;;;;;;-143.48;63.78;118439.88;5094703;28;20111;-29
2023/06/19 07:44:52;;;;;;;12.68;7.13;;;;;;;-143.48;64.44;118439.88;5094997;28;20107;-27
2023/06/19 07:47:18;;;;;;;12.25;7.00;;;;;;;-143.48;62.94;118439.88;5094984;28;20020;-27
2023/06/19 07:49:45;;;;;;;12.07;7.07;;;;;;;-143.48;63.31;118439.88;5094869;28;20136;-28
2023/06/19 07:52:10;;;;;;;10.05;6.88;;;;;;;-143.48;62.47;118439.88;5094458;28;20051;-28
2023/06/19 07:54:35;;;;;;;11.38;6.70;;;;;;;-143.48;60.91;118439.88;5093925;28;20054;-28
2023/06/19 07:57:07;;;;;;;12.02;7.30;;;;;;;-143.48;62.04;118439.88;5092130;28;20028;-28
2023/06/19 07:59:33;;;;;;;12.23;7.40;;;;;;;-143.48;62.77;118439.88;5076002;28;20378;-28
2023/06/19 08:01:58;;;;;;;11.38;7.05;;;;;;;-143.48;61.86;118439.88;5094645;28;20020;-28
2023/06/19 08:04:23;;;;;;;11.95;7.22;;;;;;;-143.48;61.79;118439.88;5094946;28;20031;-28
2023/06/19 08:06:49;;;;;;;13.68;7.15;;;;;;;-143.48;58.52;118439.88;5094830;28;20169;-28
2023/06/19 08:09:14;;;;;;;13.93;7.10;;;;;;;-143.48;57.87;118439.88;5094180;28;20020;-28
2023/06/19 08:11:40;;;;;;;14.57;7.60;;;;;;;-143.48;59.29;118439.88;5094536;28;20027;-28
2023/06/19 08:14:05;;;;;;;10.15;7.25;;;;;;;-143.48;58.74;118439.88;5094204;28;20463;-28
2023/06/19 08:16:30;;;;;;;11.23;6.88;;;;;;;-143.48;56.56;118439.88;5094310;28;20028;-28
2023/06/19 08:18:56;;;;;;;11.93;7.38;;;;;;;-143.48;55.30;118439.88;5094386;28;20469;-28
2023/06/19 08:21:21;;;;;;;12.52;6.75;;;;;;;-143.48;53.34;118439.88;5094035;28;20028;-28
2023/06/19 08:23:47;;;;;;;14.52;7.20;;;;;;;-143.48;53.23;118439.88;5076393;28;20069;-28
2023/06/19 08:26:13;;;;;;;10.98;6.30;;;;;;;-143.48;51.00;118439.88;5094262;28;20034;-28
2023/06/19 08:28:41;;;;;;;12.63;7.40;;;;;;;-143.48;52.63;118439.88;5093998;28;20385;-29
2023/06/19 08:31:06;;;;;;;12.25;7.05;;;;;;;-143.48;52.82;118439.88;5094177;28;20027;-29
2023/06/19 08:33:36;;;;;;;12.38;7.53;;;;;;;-143.48;53.90;118439.88;5094268;28;20383;-29
2023/06/19 08:36:01;;;;;;;12.45;7.60;;;;;;;-143.48;53.63;118439.88;5094006;28;20080;-28
2023/06/19 08:38:26;;;;;;;15.23;7.25;;;;;;;-143.48;52.81;118439.88;5093895;28;20439;-28
2023/06/19 08:40:52;;;;;;;16.17;7.30;;;;;;;-143.48;52.94;118439.88;5093771;28;20051;-29
2023/06/19 08:43:17;;;;;;;11.70;7.03;;;;;;;-143.48;52.66;118439.88;5093987;28;20093;-29
2023/06/19 08:45:42;;;;;;;10.00;6.50;;;;;;;-143.48;51.85;118439.88;5094212;28;20455;-29
2023/06/19 08:48:13;;;;;;;12.88;6.47;;;;;;;-143.48;52.79;118439.88;5093759;28;20024;-29
2023/06/19 08:50:39;;;;;;;12.32;6.80;;;;;;;-143.48;54.09;118439.88;5093144;28;20051;-28
2023/06/19 08:53:04;;;;;;;17.55;6.72;;;;;;;-143.48;51.66;118439.88;5093875;28;20023;-29
2023/06/19 08:55:29;;;;;;;10.40;6.85;;;;;;;-143.48;52.17;118439.88;5093601;28;20055;-29
2023/06/19 08:57:55;;;;;;;12.50;6.45;;;;;;;-143.48;52.12;118439.88;5094039;28;20034;-29
2023/06/19 09:00:25;;;;;;;13.75;7.28;;;;;;;-143.48;52.81;118439.88;5094020;28;20048;-28
2023/06/19 09:02:52;;;;;;;15.13;7.72;;;;;;;-143.48;53.83;118439.88;5093635;28;20463;-28
2023/06/19 09:05:19;;;;;;;16.52;7.65;;;;;;;-143.48;54.43;118439.88;5093691;28;20032;-28
2023/06/19 09:07:57;;;;;;;13.10;7.30;;;;;;;-143.48;53.04;118439.88;5075299;28;20459;-29
2023/06/19 09:10:23;;;;;;;12.40;7.63;;;;;;;-143.48;54.63;118439.88;5093704;28;20031;-29
2023/06/19 09:13:03;;;;;;;18.23;8.00;;;;;;;-143.48;57.72;118439.88;5093582;28;20111;-28
2023/06/19 09:15:34;;;;;;;11.93;7.80;;;;;;;-143.48;58.53;118439.88;5093336;28;20031;-29
2023/06/19 09:18:02;;;;;;;12.50;8.05;;;;;;;-143.48;58.67;118439.88;5093260;28;20028;-28
2023/06/19 09:20:28;;;;;;;15.98;8.50;;;;;;;-143.48;59.04;118439.88;5093602;28;20387;-29
2023/06/19 09:22:55;;;;;;;19.40;9.10;;;;;;;-143.48;59.12;118439.88;5093824;28;20032;-29
2023/06/19 09:25:21;;;;;;;16.02;9.15;;;;;;;-143.48;58.74;118439.88;5093744;28;20034;-28
2023/06/19 09:27:46;;;;;;;18.75;10.68;;;;;;;-143.48;58.89;118439.88;5093178;28;20475;-29
2023/06/19 09:30:16;;;;;;;19.77;11.65;;;;;;;-143.48;56.11;118439.88;5093236;28;20028;-29
2023/06/19 09:32:41;;;;;;;14.50;10.20;;;;;;;-143.48;55.01;118439.88;5093759;28;20024;-29
2023/06/19 09:35:07;;;;;;;20.02;11.73;;;;;;;-143.48;55.18;118439.88;5093474;28;20023;-29
2023/06/19 09:37:32;;;;;;;20.33;12.25;;;;;;;-143.48;55.95;118439.88;5093256;28;20024;-28
2023/06/19 09:40:12;;;;;;;23.58;12.32;;;;;;;-143.48;57.08;118439.88;5092498;28;20085;-29
2023/06/19 09:42:40;;;;;;;19.67;14.05;;;;;;;-143.48;59.86;118439.88;5093447;28;20224;-29
2023/06/19 09:45:11;;;;;;;24.42;14.73;;;;;;;-143.48;55.43;118439.88;5092967;28;20027;-28
2023/06/19 09:47:38;;;;;;;20.40;13.82;;;;;;;-143.48;56.73;118439.88;5093010;28;20490;-28
2023/06/19 09:50:04;;;;;;;19.38;13.80;;;;;;;-143.48;57.71;118439.88;5090417;28;20107;-29
2023/06/19 09:52:30;;;;;;;19.10;13.25;;;;;;;-143.48;57.51;118439.88;5092652;28;20067;-29
2023/06/19 09:54:57;;;;;;;23.83;14.05;;;;;;;-143.48;56.67;118439.88;5092362;28;20413;-28
2023/06/19 09:57:23;;;;;;;19.38;13.48;;;;;;;-143.48;57.09;118439.88;5092515;28;20463;-29
2023/06/19 09:59:56;;;;;;;21.75;14.02;;;;;;;-143.48;57.80;118439.88;5092263;28;20028;-29
2023/06/19 10:02:23;;;;;;;20.52;13.23;;;;;;;-143.48;55.11;118439.88;5093997;28;20024;-29
2023/06/19 10:04:55;;;;;;;19.42;12.90;;;;;;;-143.48;53.70;118439.88;5096767;28;20482;-29
2023/06/19 10:07:27;;;;;;;17.47;12.33;;;;;;;-143.48;52.76;118439.88;5096866;28;20055;-28
2023/06/19 10:09:57;;;;;;;16.00;12.38;;;;;;;-143.48;53.66;118439.88;5096770;28;20274;-29
2023/06/19 10:12:36;;;;;;;18.17;12.10;;;;;;;-143.48;54.49;118439.88;5096810;28;20024;-29
2023/06/19 10:15:09;;;;;;;23.13;11.80;;;;;;;-143.48;51.31;118439.88;5097077;28;20511;-28
2023/06/19 10:17:34;;;;;;;18.08;12.00;;;;;;;-143.48;52.13;118439.88;5096659;28;20024;-29
2023/06/19 10:20:00;;;;;;;15.00;10.77;;;;;;;-143.48;51.12;118439.88;5095076;28;20479;-29
2023/06/19 10:22:31;;;;;;;16.60;11.07;;;;;;;-143.48;52.13;118439.88;5096888;28;20110;-29
2023/06/19 10:24:56;;;;;;;15.13;10.98;;;;;;;-143.48;53.14;118439.88;5096592;28;20020;-29
2023/06/19 10:27:22;;;;;;;19.45;12.35;;;;;;;-143.48;53.58;118439.88;5096489;28;20076;-29
2023/06/19 10:29:53;;;;;;;14.93;11.55;;;;;;;-143.48;51.38;118439.88;5096434;28;20103;-28
2023/06/19 10:32:19;;;;;;;22.45;13.10;;;;;;;-143.48;49.85;118439.88;5096440;28;20031;-29
2023/06/19 10:34:50;;;;;;;18.75;12.18;;;;;;;-143.48;49.71;118439.88;5096436;28;20459;-29
2023/06/19 10:37:16;;;;;;;17.75;12.63;;;;;;;-143.48;51.60;118439.88;5096448;28;20405;-28
2023/06/19 10:39:42;;;;;;;17.88;13.05;;;;;;;-143.48;50.78;118439.88;5096059;28;20095;-29
2023/06/19 10:42:09;;;;;;;18.35;13.00;;;;;;;-143.48;50.04;118439.88;5095950;28;20387;-28
2023/06/19 10:44:34;;;;;;;17.15;12.68;;;;;;;-143.48;49.17;118439.88;5096070;28;20058;-29
2023/06/19 10:47:01;;;;;;;16.65;11.57;;;;;;;-143.48;48.22;118439.88;5096206;28;20433;-28
2023/06/19 10:49:26;;;;;;;16.48;11.15;;;;;;;-143.48;48.56;118439.88;5096379;28;20459;-28
2023/06/19 10:51:57;;;;;;;19.75;11.68;;;;;;;-143.48;49.29;118439.88;5095739;28;20114;-29
2023/06/19 10:54:22;;;;;;;21.23;12.30;;;;;;;-143.48;48.86;118439.88;5095662;28;20027;-28
2023/06/19 10:56:48;;;;;;;17.25;12.55;;;;;;;-143.48;46.86;118439.88;5095968;28;20024;-28
2023/06/19 10:59:14;;;;;;;18.40;13.90;;;;;;;-143.48;47.63;118439.88;5077356;28;20108;-29